Time;durP1;ratioP1;P1;durP2;ratioP2;P2;SDS_P1;SDS_P2;PMS_P1;PMS_P2;Temp;Humidity;BMP_temperature;BMP_pressure;BME280_temperature;BME280_humidity;BME280_pressure;Samples;Min_cycle;Max_cycle;Signal;HPM_P1;HPM_P2
2022/06/12 00:00:38;;;;;;;8.47;4.33;;;13.30;99.90;;;;;;4838405;29;20123;-83
2022/06/12 00:03:06;;;;;;;12.03;4.03;;;13.30;99.90;;;;;;4855628;29;20037;-83
2022/06/12 00:05:34;;;;;;;9.97;4.13;;;13.30;99.90;;;;;;4865550;29;20407;-83
2022/06/12 00:08:01;;;;;;;8.90;4.00;;;13.20;99.90;;;;;;4860203;29;20048;-82
2022/06/12 00:10:26;;;;;;;11.53;4.50;;;13.20;99.90;;;;;;4849179;29;20440;-82
2022/06/12 00:12:52;;;;;;;7.40;4.03;;;13.20;99.90;;;;;;4844111;29;20096;-83
2022/06/12 00:15:23;;;;;;;6.60;4.00;;;13.10;99.90;;;;;;4858223;29;20037;-82
2022/06/12 00:17:49;;;;;;;12.07;4.22;;;13.10;99.90;;;;;;4844976;29;20101;-82
2022/06/12 00:20:17;;;;;;;10.33;4.63;;;13.10;99.90;;;;;;4882345;29;20101;-82
2022/06/12 00:22:45;;;;;;;8.70;4.13;;;13.10;99.90;;;;;;4882898;29;20127;-82
2022/06/12 00:25:14;;;;;;;10.30;4.17;;;13.10;99.90;;;;;;4882961;29;20052;-82
2022/06/12 00:27:41;;;;;;;11.13;4.70;;;13.10;99.90;;;;;;4875550;29;20060;-82
2022/06/12 00:30:10;;;;;;;7.33;4.20;;;13.10;99.90;;;;;;4864041;29;20041;-83
2022/06/12 00:32:37;;;;;;;11.87;4.60;;;13.10;99.90;;;;;;4851675;29;20053;-82
2022/06/12 00:35:03;;;;;;;12.23;4.43;;;13.00;99.90;;;;;;4828284;29;20484;-83
2022/06/12 00:37:31;;;;;;;10.83;4.27;;;13.00;99.90;;;;;;4841622;29;20830;-83
2022/06/12 00:39:57;;;;;;;11.97;5.60;;;13.00;99.90;;;;;;4869863;29;20076;-83
2022/06/12 00:42:33;;;;;;;10.23;4.50;;;12.90;99.90;;;;;;4851850;29;20133;-83
2022/06/12 00:45:02;;;;;;;12.90;4.53;;;13.00;99.90;;;;;;4875517;29;20514;-83
2022/06/12 00:47:28;;;;;;;11.97;4.60;;;12.90;99.90;;;;;;4866960;29;20071;-83
2022/06/12 00:49:58;;;;;;;12.37;4.90;;;12.90;99.90;;;;;;4838622;29;20041;-83
2022/06/12 00:52:32;;;;;;;9.47;4.50;;;12.90;99.90;;;;;;4855155;29;20073;-83
2022/06/12 00:55:24;;;;;;;12.20;4.60;;;12.80;99.90;;;;;;4875938;29;20470;-83
2022/06/12 00:57:53;;;;;;;10.88;4.25;;;12.80;99.90;;;;;;4880020;29;20135;-83
2022/06/12 01:00:19;;;;;;;10.33;4.50;;;12.70;99.90;;;;;;4858836;29;20054;-83
2022/06/12 01:02:46;;;;;;;12.33;4.90;;;12.60;99.90;;;;;;4845546;29;20107;-83
2022/06/12 01:08:01;;;;;;;11.03;4.77;;;12.50;99.90;;;;;;4845112;29;20400;-83
2022/06/12 01:10:28;;;;;;;10.27;4.27;;;12.50;99.90;;;;;;4851867;29;20045;-83
2022/06/12 01:13:09;;;;;;;10.60;4.00;;;12.50;99.90;;;;;;4849560;29;20051;-80
2022/06/12 01:15:42;;;;;;;7.95;4.78;;;12.40;99.90;;;;;;4878227;29;20048;-80
2022/06/12 01:18:11;;;;;;;10.20;3.80;;;12.40;99.90;;;;;;4866365;29;20103;-80
2022/06/12 01:20:47;;;;;;;7.77;4.10;;;12.40;99.90;;;;;;4866505;29;20509;-83
2022/06/12 01:23:32;;;;;;;9.00;4.00;;;12.40;99.90;;;;;;4847774;29;20044;-83
2022/06/12 01:26:55;;;;;;;9.53;4.13;;;12.30;99.90;;;;;;4844977;29;20083;-83
2022/06/12 01:29:33;;;;;;;;;;;12.30;99.90;;;;;;4831121;29;20080;-83
2022/06/12 01:32:15;;;;;;;10.60;4.30;;;12.20;99.90;;;;;;4819535;29;19981;-83
2022/06/12 01:35:09;;;;;;;9.27;3.70;;;12.20;99.90;;;;;;4850746;29;20041;-83
2022/06/12 01:38:09;;;;;;;9.90;4.10;;;12.20;99.90;;;;;;4848623;29;20066;-83
2022/06/12 01:40:53;;;;;;;7.50;3.90;;;12.20;99.90;;;;;;4871983;29;20041;-83
2022/06/12 01:43:47;;;;;;;6.53;3.63;;;12.10;99.90;;;;;;4858329;29;20068;-83
2022/06/12 01:46:24;;;;;;;6.83;3.70;;;12.20;99.90;;;;;;4849373;29;20053;-83
2022/06/12 01:49:08;;;;;;;8.10;3.80;;;12.20;99.90;;;;;;4862038;29;20078;-83
2022/06/12 01:52:03;;;;;;;14.37;4.83;;;12.20;99.90;;;;;;4838143;29;20049;-83
2022/06/12 01:54:53;;;;;;;9.10;3.50;;;12.30;99.90;;;;;;4859809;29;20040;-83
2022/06/12 01:57:22;;;;;;;11.97;4.83;;;12.20;99.90;;;;;;4862753;29;20514;-83
2022/06/12 02:00:10;;;;;;;6.77;4.13;;;12.10;99.90;;;;;;4863817;29;20037;-83
2022/06/12 02:03:12;;;;;;;9.20;4.27;;;12.10;99.90;;;;;;4875593;29;20045;-83
2022/06/12 02:06:07;;;;;;;9.23;4.40;;;12.10;99.90;;;;;;4862576;29;20040;-83
2022/06/12 02:08:42;;;;;;;7.27;4.27;;;12.10;99.90;;;;;;4852770;29;20052;-83
2022/06/12 02:14:00;;;;;;;10.97;4.40;;;12.10;99.90;;;;;;4863373;29;20163;-83
2022/06/12 02:16:33;;;;;;;10.27;4.53;;;12.10;99.90;;;;;;4852799;29;20045;-83
2022/06/12 02:19:07;;;;;;;6.87;4.27;;;12.10;99.90;;;;;;4849055;29;20143;-83
2022/06/12 02:21:45;;;;;;;9.90;4.10;;;12.10;99.90;;;;;;4853337;29;20845;-83
2022/06/12 02:24:24;;;;;;;10.53;5.03;;;12.20;99.90;;;;;;4835327;29;20499;-82
2022/06/12 02:27:06;;;;;;;10.27;4.20;;;12.10;99.90;;;;;;4839841;29;20100;-83
2022/06/12 02:29:36;;;;;;;9.43;4.60;;;12.20;99.90;;;;;;4845605;29;20052;-83
2022/06/12 02:32:09;;;;;;;11.83;4.73;;;12.10;99.90;;;;;;4844813;29;20286;-84
2022/06/12 02:34:39;;;;;;;8.40;4.70;;;12.10;99.90;;;;;;4860770;29;20052;-83
2022/06/12 02:37:14;;;;;;;9.87;4.57;;;12.20;99.90;;;;;;4850625;29;20049;-82
2022/06/12 02:39:48;;;;;;;8.07;4.53;;;12.20;99.90;;;;;;4837947;29;20049;-83
2022/06/12 02:42:26;;;;;;;11.63;4.20;;;12.20;99.90;;;;;;4870714;29;20048;-83
2022/06/12 02:45:15;;;;;;;9.13;4.23;;;12.20;99.90;;;;;;4878130;29;20192;-83
2022/06/12 02:47:43;;;;;;;9.07;3.90;;;12.20;99.90;;;;;;4874411;29;20053;-83
2022/06/12 02:50:12;;;;;;;12.63;4.47;;;12.10;99.90;;;;;;4846223;29;20395;-81
2022/06/12 02:52:43;;;;;;;9.73;4.43;;;12.20;99.90;;;;;;4837122;29;20484;-81
2022/06/12 02:55:37;;;;;;;9.65;4.25;;;12.10;99.90;;;;;;4851145;29;20048;-81
2022/06/12 02:58:25;;;;;;;7.43;4.07;;;12.10;99.90;;;;;;4836799;29;20053;-81
2022/06/12 03:00:54;;;;;;;8.10;4.60;;;12.10;99.90;;;;;;4842926;29;20124;-81
2022/06/12 03:03:35;;;;;;;7.37;4.17;;;12.10;99.90;;;;;;4846993;29;20051;-80
2022/06/12 03:06:02;;;;;;;7.53;4.28;;;12.10;99.90;;;;;;4841823;29;20411;-80
2022/06/12 03:08:34;;;;;;;8.27;3.87;;;12.00;99.90;;;;;;4837829;29;20484;-80
2022/06/12 03:11:20;;;;;;;10.25;4.50;;;12.10;99.90;;;;;;4843382;29;20127;-80
2022/06/12 03:13:47;;;;;;;9.13;3.87;;;12.00;99.90;;;;;;4858181;29;20483;-80
2022/06/12 03:16:24;;;;;;;10.30;4.33;;;12.10;99.90;;;;;;4863223;29;20037;-81
2022/06/12 03:19:02;;;;;;;8.00;4.47;;;12.10;99.90;;;;;;4844603;29;20435;-81
2022/06/12 03:21:34;;;;;;;10.30;4.17;;;12.00;99.90;;;;;;4863500;29;20049;-81
2022/06/12 03:24:09;;;;;;;9.53;4.60;;;12.10;99.90;;;;;;4877760;29;20045;-80
2022/06/12 03:26:47;;;;;;;10.50;4.27;;;12.10;99.90;;;;;;4862976;29;20049;-80
2022/06/12 03:29:40;;;;;;;9.90;3.73;;;12.10;99.90;;;;;;4864358;29;20414;-81
2022/06/12 03:32:19;;;;;;;10.47;3.83;;;12.10;99.90;;;;;;4849429;29;20041;-80
2022/06/12 03:34:55;;;;;;;10.20;4.07;;;12.10;99.90;;;;;;4836609;29;20425;-80
2022/06/12 03:37:39;;;;;;;9.37;3.70;;;12.10;99.90;;;;;;4845558;29;20045;-81
2022/06/12 03:40:26;;;;;;;7.77;3.57;;;12.10;99.90;;;;;;4840894;29;20076;-81
2022/06/12 03:43:20;;;;;;;5.60;3.63;;;12.10;99.90;;;;;;4857743;29;20459;-81
2022/06/12 03:46:01;;;;;;;7.70;3.53;;;12.20;99.90;;;;;;4847406;29;20059;-81
2022/06/12 03:48:34;;;;;;;7.80;4.13;;;12.20;99.90;;;;;;4864088;29;20044;-81
2022/06/12 03:51:10;;;;;;;10.50;3.80;;;12.30;99.90;;;;;;4853965;29;20056;-81
2022/06/12 03:53:51;;;;;;;7.77;4.10;;;12.30;99.90;;;;;;4850326;29;20444;-81
2022/06/12 03:59:30;;;;;;;7.67;3.60;;;12.40;99.90;;;;;;4861084;29;20056;-81
2022/06/12 04:01:59;;;;;;;8.97;4.87;;;12.30;99.90;;;;;;4840946;29;20044;-81
2022/06/12 04:04:30;;;;;;;7.63;3.83;;;12.40;99.90;;;;;;4866547;29;20135;-81
2022/06/12 04:06:59;;;;;;;8.33;4.00;;;12.40;99.90;;;;;;4867873;29;20045;-82
2022/06/12 04:09:28;;;;;;;8.00;3.80;;;12.30;99.90;;;;;;4845358;29;20317;-82
2022/06/12 04:11:58;;;;;;;8.70;4.10;;;12.30;99.90;;;;;;4857248;29;20037;-82
2022/06/12 04:14:30;;;;;;;9.53;4.20;;;12.40;99.90;;;;;;4857610;29;20038;-81
2022/06/12 04:16:59;;;;;;;16.58;4.68;;;12.40;99.90;;;;;;4862395;29;20073;-81
2022/06/12 04:19:27;;;;;;;8.43;3.87;;;12.40;99.90;;;;;;4853352;29;20061;-80
2022/06/12 04:22:06;;;;;;;9.80;3.47;;;12.50;99.90;;;;;;4846554;29;20041;-81
2022/06/12 04:24:46;;;;;;;10.77;3.70;;;12.50;99.90;;;;;;4843387;29;20124;-81
2022/06/12 04:27:20;;;;;;;8.33;3.60;;;12.50;99.90;;;;;;4844552;29;20104;-81
2022/06/12 04:29:59;;;;;;;12.93;4.53;;;12.60;99.90;;;;;;4856312;29;20049;-81
2022/06/12 04:32:27;;;;;;;10.63;4.23;;;12.60;99.90;;;;;;4854650;29;20105;-80
2022/06/12 04:34:53;;;;;;;10.10;4.03;;;12.60;99.90;;;;;;4841554;29;20085;-80
2022/06/12 04:37:23;;;;;;;9.57;4.10;;;12.70;99.90;;;;;;4847113;29;20040;-80
2022/06/12 04:39:50;;;;;;;10.00;4.10;;;12.70;99.90;;;;;;4867964;29;20045;-80
2022/06/12 04:42:19;;;;;;;12.87;4.00;;;12.70;99.90;;;;;;4852772;29;20087;-81
2022/06/12 04:44:45;;;;;;;9.50;4.70;;;12.80;99.90;;;;;;4866687;29;20045;-80
2022/06/12 04:47:15;;;;;;;11.20;4.40;;;12.80;99.90;;;;;;4866039;29;20109;-81
2022/06/12 04:49:41;;;;;;;9.60;3.80;;;12.90;99.90;;;;;;4843717;29;20041;-80
2022/06/12 04:52:09;;;;;;;10.00;4.70;;;13.00;99.90;;;;;;4848679;29;20033;-79
2022/06/12 04:54:36;;;;;;;11.43;4.03;;;13.10;99.90;;;;;;4841536;29;20415;-80
2022/06/12 04:57:03;;;;;;;9.33;3.63;;;13.10;99.90;;;;;;4864808;29;20067;-80
2022/06/12 04:59:29;;;;;;;9.80;4.47;;;13.20;99.90;;;;;;4846536;29;20509;-80
2022/06/12 05:01:55;;;;;;;14.07;4.10;;;13.30;99.90;;;;;;4844198;29;20049;-80
2022/06/12 05:04:22;;;;;;;6.70;3.60;;;13.30;99.90;;;;;;4858457;29;20633;-80
2022/06/12 05:06:51;;;;;;;8.07;3.50;;;13.40;99.90;;;;;;4840418;29;20415;-80
2022/06/12 05:09:19;;;;;;;12.27;4.20;;;13.50;99.90;;;;;;4845518;29;20688;-81
2022/06/12 05:11:45;;;;;;;8.80;4.10;;;13.50;99.90;;;;;;4858459;29;20056;-83
2022/06/12 05:14:11;;;;;;;9.17;3.63;;;13.60;99.90;;;;;;4864272;29;20040;-84
2022/06/12 05:16:46;;;;;;;8.33;3.50;;;13.70;99.90;;;;;;4827932;29;20428;-83
2022/06/12 05:19:14;;;;;;;9.23;3.70;;;13.70;99.90;;;;;;4855601;29;20077;-84
2022/06/12 05:21:40;;;;;;;11.57;3.90;;;13.80;99.90;;;;;;4856836;29;20061;-83
2022/06/12 05:24:07;;;;;;;9.13;3.50;;;13.80;99.90;;;;;;4839499;29;20064;-83
2022/06/12 05:26:33;;;;;;;11.00;3.43;;;13.90;99.90;;;;;;4868550;29;20114;-82
2022/06/12 05:29:04;;;;;;;7.17;3.30;;;14.00;99.90;;;;;;4857840;29;20590;-83
2022/06/12 05:31:30;;;;;;;9.35;4.00;;;14.00;99.90;;;;;;4846918;29;20041;-83
2022/06/12 05:33:56;;;;;;;10.13;3.80;;;14.10;99.90;;;;;;4854739;29;20088;-82
2022/06/12 05:36:23;;;;;;;9.73;3.70;;;14.10;99.90;;;;;;4863574;29;20056;-83
2022/06/12 05:38:49;;;;;;;10.00;4.20;;;14.20;99.90;;;;;;4844029;29;20028;-82
2022/06/12 05:41:16;;;;;;;9.53;3.90;;;14.30;99.90;;;;;;4855859;29;20037;-81
2022/06/12 05:43:42;;;;;;;7.67;3.50;;;14.30;99.90;;;;;;4868314;29;20140;-79
2022/06/12 05:46:10;;;;;;;9.97;3.50;;;14.50;99.90;;;;;;4840764;29;20044;-81
2022/06/12 05:48:36;;;;;;;9.87;3.60;;;14.50;99.90;;;;;;4845172;29;20485;-80
2022/06/12 05:51:04;;;;;;;10.43;3.87;;;14.60;99.90;;;;;;4867818;29;20045;-80
2022/06/12 05:53:31;;;;;;;12.03;4.10;;;14.80;99.90;;;;;;4859462;29;20412;-80
2022/06/12 05:55:57;;;;;;;13.73;3.80;;;14.90;99.90;;;;;;4850196;29;20064;-81
2022/06/12 05:58:25;;;;;;;14.30;4.50;;;15.00;99.90;;;;;;4881571;29;20041;-79
2022/06/12 06:00:52;;;;;;;11.15;4.05;;;15.20;99.90;;;;;;4861470;29;20052;-80
2022/06/12 06:03:19;;;;;;;11.80;4.40;;;15.30;99.90;;;;;;4824213;29;20045;-81
2022/06/12 06:05:47;;;;;;;12.43;4.30;;;15.40;99.90;;;;;;4870951;29;20084;-80
2022/06/12 06:08:13;;;;;;;10.30;3.75;;;15.40;99.90;;;;;;4861979;29;20049;-78
2022/06/12 06:10:41;;;;;;;13.95;3.88;;;15.60;99.90;;;;;;4856156;29;20083;-80
2022/06/12 06:13:07;;;;;;;15.15;4.28;;;15.70;99.90;;;;;;4843455;29;20375;-80
2022/06/12 06:15:33;;;;;;;16.27;4.20;;;15.90;99.90;;;;;;4853528;29;20069;-81
2022/06/12 06:17:59;;;;;;;11.52;4.18;;;16.10;99.90;;;;;;4850653;29;20053;-80
2022/06/12 06:20:33;;;;;;;14.70;4.50;;;16.20;99.90;;;;;;4846275;29;20396;-81
2022/06/12 06:22:59;;;;;;;10.80;4.22;;;16.20;99.90;;;;;;4851602;29;20055;-81
2022/06/12 06:25:28;;;;;;;12.57;4.45;;;16.10;99.90;;;;;;4846693;29;20795;-81
2022/06/12 06:27:54;;;;;;;14.38;5.00;;;16.10;99.90;;;;;;4828848;29;20056;-80
2022/06/12 06:30:22;;;;;;;11.45;4.18;;;16.00;99.90;;;;;;4872958;29;20062;-80
2022/06/12 06:32:48;;;;;;;16.83;4.72;;;16.10;99.90;;;;;;4832095;29;20033;-81
2022/06/12 06:35:14;;;;;;;11.32;4.88;;;16.20;99.90;;;;;;4844490;29;20558;-80
2022/06/12 06:37:41;;;;;;;14.00;4.65;;;16.40;99.90;;;;;;4854870;29;20044;-80
2022/06/12 06:40:09;;;;;;;19.65;4.78;;;16.60;99.90;;;;;;4855952;29;20582;-79
2022/06/12 06:42:36;;;;;;;12.50;4.22;;;16.80;99.90;;;;;;4858424;29;20053;-79
2022/06/12 06:47:46;;;;;;;14.60;5.05;;;17.10;99.90;;;;;;4862894;29;20045;-80
2022/06/12 06:50:15;;;;;;;16.75;4.47;;;17.30;99.90;;;;;;4862659;29;20041;-81
2022/06/12 06:52:40;;;;;;;14.48;5.20;;;17.50;99.90;;;;;;4862743;29;20045;-77
2022/06/12 06:55:07;;;;;;;15.00;4.88;;;17.60;99.90;;;;;;4841204;29;20052;-81
2022/06/12 06:57:36;;;;;;;15.90;4.78;;;17.70;99.90;;;;;;4871065;29;20040;-81
2022/06/12 07:00:04;;;;;;;20.23;5.93;;;17.80;99.90;;;;;;4862620;29;20101;-81
2022/06/12 07:02:30;;;;;;;15.98;4.55;;;17.90;99.90;;;;;;4847362;29;20084;-80
2022/06/12 07:04:56;;;;;;;13.57;4.93;;;18.00;99.90;;;;;;4862791;29;20372;-81
2022/06/12 07:07:22;;;;;;;17.35;5.45;;;18.20;99.90;;;;;;4847607;29;20052;-80
2022/06/12 07:09:47;;;;;;;13.15;4.45;;;18.30;99.90;;;;;;4847457;29;20515;-81
2022/06/12 07:12:13;;;;;;;17.00;4.90;;;18.40;99.90;;;;;;4858991;29;20530;-82
2022/06/12 07:14:39;;;;;;;15.20;4.65;;;18.50;99.90;;;;;;4865780;29;20419;-81
2022/06/12 07:17:05;;;;;;;14.75;4.90;;;18.50;99.90;;;;;;4850288;29;20047;-81
2022/06/12 07:19:31;;;;;;;10.38;4.78;;;18.50;99.90;;;;;;4848063;29;20148;-80
2022/06/12 07:21:56;;;;;;;17.77;5.20;;;18.70;99.90;;;;;;4877383;29;20048;-81
2022/06/12 07:24:22;;;;;;;16.45;5.85;;;18.70;99.90;;;;;;4838956;29;20448;-82
2022/06/12 07:26:48;;;;;;;14.27;4.60;;;18.80;99.90;;;;;;4845607;29;20049;-81
2022/06/12 07:29:16;;;;;;;11.05;4.57;;;18.90;99.90;;;;;;4870599;29;20081;-81
2022/06/12 07:31:42;;;;;;;17.17;5.22;;;19.00;99.90;;;;;;4863545;29;20391;-80
2022/06/12 07:34:08;;;;;;;21.73;5.85;;;19.10;99.90;;;;;;4879665;29;20037;-81
2022/06/12 07:36:36;;;;;;;17.75;5.13;;;19.30;99.90;;;;;;4849542;29;20132;-81
2022/06/12 07:39:05;;;;;;;20.02;5.45;;;19.40;99.90;;;;;;4856418;29;20054;-81
2022/06/12 07:41:30;;;;;;;19.35;4.43;;;19.40;99.90;;;;;;4848463;29;20045;-82
2022/06/12 07:43:56;;;;;;;13.95;5.40;;;19.50;99.90;;;;;;4847164;29;20045;-82
2022/06/12 07:46:22;;;;;;;14.35;4.97;;;19.50;99.90;;;;;;4860012;29;20042;-81
2022/06/12 07:48:48;;;;;;;16.88;4.88;;;19.60;99.90;;;;;;4817610;29;20118;-83
2022/06/12 07:51:18;;;;;;;16.00;5.03;;;19.70;99.90;;;;;;4868608;29;20044;-82
2022/06/12 07:53:44;;;;;;;16.77;5.80;;;19.80;99.90;;;;;;4861683;29;20119;-83
2022/06/12 07:56:11;;;;;;;11.35;4.60;;;19.90;99.90;;;;;;4852026;29;20044;-83
2022/06/12 07:58:38;;;;;;;20.13;5.53;;;19.90;99.90;;;;;;4857450;29;20040;-82
2022/06/12 08:01:07;;;;;;;12.25;4.30;;;20.00;99.90;;;;;;4885429;29;20106;-79
2022/06/12 08:03:33;;;;;;;15.68;4.40;;;20.10;99.90;;;;;;4870562;29;20050;-82
2022/06/12 08:05:59;;;;;;;16.38;4.03;;;20.10;99.90;;;;;;4847488;29;20065;-82
2022/06/12 08:08:25;;;;;;;13.93;4.57;;;20.20;99.90;;;;;;4865338;29;20755;-82
2022/06/12 08:10:51;;;;;;;12.52;3.88;;;20.20;99.90;;;;;;4844827;29;20047;-81
2022/06/12 08:13:17;;;;;;;11.55;3.92;;;20.40;99.90;;;;;;4881805;29;20116;-81
2022/06/12 08:15:46;;;;;;;13.35;4.70;;;20.50;99.90;;;;;;4840244;29;20048;-84
2022/06/12 08:18:14;;;;;;;9.43;3.55;;;20.60;99.90;;;;;;4831801;29;20068;-84
2022/06/12 08:20:45;;;;;;;13.70;3.63;;;20.70;99.90;;;;;;4852152;29;20091;-85
2022/06/12 08:23:33;;;;;;;9.60;3.08;;;20.90;99.90;;;;;;4852139;29;20133;-85
2022/06/12 08:26:11;;;;;;;13.07;3.63;;;20.90;99.90;;;;;;4849458;29;20037;-84
2022/06/12 08:28:44;;;;;;;14.45;4.10;;;21.00;99.90;;;;;;4865435;29;20055;-84
2022/06/12 08:31:14;;;;;;;13.82;3.90;;;21.10;99.90;;;;;;4859618;29;20047;-85
2022/06/12 08:33:42;;;;;;;13.13;3.60;;;21.20;99.90;;;;;;4868411;29;20088;-85
2022/06/12 08:36:10;;;;;;;12.65;3.58;;;21.30;99.90;;;;;;4857699;29;20045;-85
2022/06/12 08:38:36;;;;;;;14.57;4.35;;;21.20;99.90;;;;;;4865621;29;20049;-83
2022/06/12 08:41:08;;;;;;;11.98;3.88;;;21.30;99.90;;;;;;4851160;29;20047;-82
2022/06/12 08:43:47;;;;;;;;;;;21.40;99.90;;;;;;4859433;29;20041;-84
2022/06/12 08:46:30;;;;;;;10.63;3.22;;;21.30;99.90;;;;;;4859345;29;19935;-83
2022/06/12 08:49:11;;;;;;;6.72;2.70;;;21.30;99.90;;;;;;4868156;29;20036;-84
2022/06/12 08:51:57;;;;;;;10.02;3.10;;;21.30;99.90;;;;;;4883812;29;20041;-85
2022/06/12 08:54:43;;;;;;;12.55;3.00;;;21.40;99.90;;;;;;4858893;29;20120;-84
2022/06/12 08:57:22;;;;;;;7.75;3.17;;;21.50;99.90;;;;;;4861421;29;20942;-85
2022/06/12 08:59:53;;;;;;;11.30;3.55;;;21.60;99.90;;;;;;4864279;29;20044;-84
2022/06/12 09:02:23;;;;;;;11.73;3.67;;;21.60;99.90;;;;;;4848889;29;20096;-85
2022/06/12 09:04:49;;;;;;;10.67;3.33;;;21.60;99.90;;;;;;4849445;29;20432;-85
2022/06/12 09:07:41;;;;;;;13.88;3.38;;;21.50;99.90;;;;;;4839037;29;20176;-84
2022/06/12 09:10:16;;;;;;;9.95;3.20;;;21.50;99.90;;;;;;4856182;29;20041;-84
2022/06/12 09:12:51;;;;;;;13.40;3.70;;;21.60;99.90;;;;;;4840597;29;20056;-84
2022/06/12 09:15:33;;;;;;;10.00;3.40;;;21.80;99.90;;;;;;4874982;29;20093;-84
2022/06/12 09:18:19;;;;;;;6.90;3.15;;;21.60;99.90;;;;;;4845193;29;20519;-84
2022/06/12 09:20:57;;;;;;;11.93;3.75;;;21.40;99.90;;;;;;4843690;29;20048;-83
2022/06/12 09:23:32;;;;;;;16.85;4.13;;;21.10;99.90;;;;;;4847921;29;20080;-84
2022/06/12 09:26:20;;;;;;;10.10;3.88;;;21.10;99.90;;;;;;4848510;29;20116;-84
2022/06/12 09:29:21;;;;;;;12.30;3.30;;;21.10;99.90;;;;;;4855867;29;20037;-84
2022/06/12 09:32:08;;;;;;;10.93;3.42;;;21.30;99.90;;;;;;4881796;29;20096;-83
2022/06/12 09:34:54;;;;;;;11.18;3.03;;;21.50;99.90;;;;;;4873096;29;20052;-83
2022/06/12 09:40:37;;;;;;;7.05;2.67;;;22.00;99.90;;;;;;4855571;29;20060;-85
2022/06/12 09:43:12;;;;;;;5.47;2.72;;;22.20;99.90;;;;;;4847252;29;20064;-84
2022/06/12 09:45:49;;;;;;;10.57;3.70;;;22.40;99.90;;;;;;4847870;29;20106;-84
2022/06/12 09:48:55;;;;;;;13.68;3.38;;;22.50;99.90;;;;;;4848134;29;20099;-84
2022/06/12 09:51:42;;;;;;;7.18;3.00;;;22.80;94.80;;;;;;4848978;29;20073;-83
2022/06/12 09:54:32;;;;;;;10.07;3.00;;;22.60;95.90;;;;;;4860801;29;20127;-82
2022/06/12 09:57:27;;;;;;;9.32;3.20;;;22.40;99.20;;;;;;4860386;29;20138;-83
2022/06/12 10:00:08;;;;;;;8.43;3.30;;;22.50;99.10;;;;;;4841319;29;20628;-83
2022/06/12 10:02:40;;;;;;;;;;;22.60;94.70;;;;;;4845644;29;20072;-82
2022/06/12 10:05:28;;;;;;;12.70;3.40;;;22.70;99.70;;;;;;4852897;29;19919;-84
2022/06/12 10:08:18;;;;;;;9.55;2.90;;;22.90;96.10;;;;;;4841674;29;20555;-83
2022/06/12 10:10:58;;;;;;;5.97;2.58;;;23.20;99.90;;;;;;4854783;29;20446;-84
2022/06/12 10:13:34;;;;;;;6.95;2.60;;;22.90;92.60;;;;;;4882033;29;20108;-85
2022/06/12 10:16:08;;;;;;;6.65;2.30;;;22.60;93.40;;;;;;4866436;29;20045;-85
2022/06/12 10:19:03;;;;;;;7.30;2.30;;;22.60;89.80;;;;;;4861521;29;20455;-86
2022/06/12 10:21:34;;;;;;;7.65;2.20;;;22.60;80.60;;;;;;4867017;29;20176;-87
2022/06/12 10:24:01;;;;;;;6.38;2.33;;;22.70;80.00;;;;;;4852553;29;20064;-84
2022/06/12 10:26:30;;;;;;;5.38;2.08;;;22.70;77.40;;;;;;4849217;29;20039;-87
2022/06/12 10:29:09;;;;;;;4.72;2.00;;;22.90;77.00;;;;;;4865501;29;20036;-84
2022/06/12 10:31:49;;;;;;;4.70;2.20;;;23.20;75.00;;;;;;4860180;29;20128;-85
2022/06/12 10:34:20;;;;;;;5.25;1.85;;;23.30;72.10;;;;;;4866875;29;20044;-85
2022/06/12 10:36:46;;;;;;;8.95;2.00;;;23.60;72.30;;;;;;4865378;29;20384;-84
2022/06/12 10:39:22;;;;;;;5.70;2.05;;;23.80;72.30;;;;;;4862785;29;20048;-80
2022/06/12 10:42:04;;;;;;;6.70;2.03;;;24.00;69.80;;;;;;4863195;29;20048;-81
2022/06/12 10:44:43;;;;;;;4.28;2.10;;;24.20;69.50;;;;;;4878720;29;20048;-81
2022/06/12 10:47:21;;;;;;;7.85;2.20;;;24.00;67.30;;;;;;4874604;29;20048;-81
2022/06/12 10:50:00;;;;;;;4.70;2.00;;;23.60;69.50;;;;;;4861074;29;20093;-80
2022/06/12 10:52:25;;;;;;;4.95;2.35;;;23.00;70.90;;;;;;4852270;29;20037;-83
2022/06/12 10:54:52;;;;;;;4.95;1.73;;;22.60;72.10;;;;;;4829870;29;20124;-83
2022/06/12 10:57:45;;;;;;;7.00;2.33;;;22.30;74.10;;;;;;4802787;29;20097;-80
2022/06/12 11:00:15;;;;;;;6.35;2.35;;;21.90;74.60;;;;;;4855612;29;20049;-81
2022/06/12 11:03:06;;;;;;;5.90;2.00;;;21.90;77.20;;;;;;4857161;29;20045;-82
2022/06/12 11:05:55;;;;;;;6.65;2.00;;;22.20;72.00;;;;;;4879014;29;20059;-81
2022/06/12 11:08:47;;;;;;;5.90;2.00;;;22.60;69.20;;;;;;4876518;29;20052;-83
2022/06/12 11:11:32;;;;;;;6.07;1.90;;;22.90;67.90;;;;;;4855200;29;20055;-82
2022/06/12 11:14:26;;;;;;;4.90;1.85;;;23.10;68.60;;;;;;4860569;29;20048;-82
2022/06/12 11:17:17;;;;;;;4.80;2.00;;;23.40;65.90;;;;;;4851663;29;20036;-82
2022/06/12 11:19:51;;;;;;;4.50;1.50;;;23.60;65.60;;;;;;4861587;29;20057;-82
2022/06/12 11:22:31;;;;;;;4.35;1.52;;;23.50;62.70;;;;;;4856007;29;20081;-82
2022/06/12 11:25:23;;;;;;;5.00;1.60;;;23.50;64.50;;;;;;4854192;29;20049;-82
2022/06/12 11:28:23;;;;;;;5.60;1.80;;;23.40;62.60;;;;;;4830053;29;20053;-81
2022/06/12 11:31:19;;;;;;;3.40;1.35;;;23.30;59.90;;;;;;4852210;29;20456;-82
2022/06/12 11:34:03;;;;;;;2.63;1.42;;;23.30;58.60;;;;;;4859931;29;20819;-80
2022/06/12 11:36:53;;;;;;;4.00;1.33;;;23.40;58.00;;;;;;4865303;29;20107;-83
2022/06/12 11:39:46;;;;;;;4.63;1.40;;;23.30;60.50;;;;;;4864356;29;20052;-83
2022/06/12 11:42:15;;;;;;;4.95;1.90;;;23.20;59.20;;;;;;4834286;29;20049;-81
2022/06/12 11:44:53;;;;;;;3.53;1.63;;;23.20;59.30;;;;;;4872360;29;20050;-83
2022/06/12 11:47:48;;;;;;;4.82;1.55;;;23.30;58.30;;;;;;4857202;29;20128;-81
2022/06/12 11:50:29;;;;;;;4.72;1.75;;;23.50;60.90;;;;;;4843008;29;20117;-83
2022/06/12 11:53:10;;;;;;;3.55;1.40;;;23.70;58.50;;;;;;4835818;29;20102;-82
2022/06/12 11:55:50;;;;;;;1.90;1.40;;;23.70;58.90;;;;;;4848527;29;20045;-80
2022/06/12 11:58:40;;;;;;;4.97;2.17;;;23.80;57.50;;;;;;4865839;29;20053;-83
2022/06/12 12:01:14;;;;;;;5.93;1.90;;;24.00;58.30;;;;;;4878329;29;20052;-80
2022/06/12 12:04:08;;;;;;;5.72;1.85;;;24.10;58.70;;;;;;4876741;29;20055;-82
2022/06/12 12:06:55;;;;;;;2.90;1.50;;;24.30;57.20;;;;;;4874091;29;20048;-80
2022/06/12 12:09:53;;;;;;;4.40;1.50;;;24.10;59.00;;;;;;4864918;29;20052;-83
2022/06/12 12:12:24;;;;;;;4.60;1.60;;;23.80;56.40;;;;;;4834314;29;20072;-80
2022/06/12 12:14:51;;;;;;;5.07;1.80;;;23.60;56.50;;;;;;4853290;29;20346;-79
2022/06/12 12:17:25;;;;;;;3.97;1.73;;;23.10;57.30;;;;;;4861276;29;20072;-83
2022/06/12 12:19:58;;;;;;;5.95;2.30;;;22.80;58.90;;;;;;4860357;29;20510;-83
2022/06/12 12:22:46;;;;;;;6.82;1.75;;;22.70;59.70;;;;;;4855155;29;20127;-81
2022/06/12 12:25:47;;;;;;;4.00;1.70;;;22.70;60.90;;;;;;4846532;29;20444;-82
2022/06/12 12:28:22;;;;;;;6.03;2.13;;;22.70;60.40;;;;;;4852474;29;20403;-82
2022/06/12 12:30:53;;;;;;;3.83;1.80;;;22.50;61.00;;;;;;4856078;29;20143;-82
2022/06/12 12:33:20;;;;;;;4.97;1.90;;;22.40;61.00;;;;;;4876561;29;20056;-80
2022/06/12 12:41:26;;;;;;;7.85;2.53;;;22.40;61.80;;;;;;4873213;29;20053;-84
2022/06/12 12:43:56;;;;;;;4.78;2.47;;;22.50;63.80;;;;;;4866771;29;20502;-81
2022/06/12 12:46:25;;;;;;;4.20;2.05;;;22.60;62.00;;;;;;4852509;29;20047;-81
2022/06/12 12:48:55;;;;;;;7.18;2.50;;;22.70;62.60;;;;;;4857844;29;20041;-81
2022/06/12 12:51:34;;;;;;;4.53;1.90;;;22.90;63.00;;;;;;4833900;29;20101;-80
2022/06/12 12:54:13;;;;;;;6.97;2.03;;;23.10;62.20;;;;;;4839699;29;20068;-81
2022/06/12 12:56:59;;;;;;;4.13;1.83;;;22.90;61.80;;;;;;4860566;29;20482;-82
2022/06/12 13:00:01;;;;;;;6.70;2.00;;;23.00;62.30;;;;;;4843795;29;20411;-81
2022/06/12 13:02:30;;;;;;;7.68;2.08;;;22.70;63.70;;;;;;4778715;29;20043;-82
2022/06/12 13:05:12;;;;;;;5.25;2.40;;;22.70;63.70;;;;;;4853520;29;20523;-81
2022/06/12 13:08:01;;;;;;;6.10;2.30;;;22.90;65.20;;;;;;4850210;29;20051;-82
2022/06/12 13:10:52;;;;;;;4.05;1.60;;;22.90;63.30;;;;;;4862692;29;20042;-83
2022/06/12 13:13:39;;;;;;;5.65;2.15;;;23.00;63.80;;;;;;4854767;29;20380;-80
2022/06/12 13:16:38;;;;;;;6.28;2.47;;;23.00;64.00;;;;;;4865525;29;20056;-81
2022/06/12 13:19:17;;;;;;;6.15;2.42;;;22.60;64.90;;;;;;4847968;29;20112;-84
2022/06/12 13:21:55;;;;;;;9.25;2.30;;;22.30;65.60;;;;;;4863860;29;20045;-82
2022/06/12 13:24:35;;;;;;;6.35;2.53;;;22.10;66.00;;;;;;4885800;29;20045;-82
2022/06/12 13:27:23;;;;;;;7.05;2.85;;;22.10;65.90;;;;;;4857394;29;20045;-84
2022/06/12 13:29:52;;;;;;;5.25;2.05;;;22.10;66.80;;;;;;4835023;29;20104;-84
2022/06/12 13:32:30;;;;;;;5.45;2.10;;;22.10;66.60;;;;;;4855629;29;20041;-84
2022/06/12 13:35:07;;;;;;;3.63;2.33;;;22.00;66.40;;;;;;4849087;29;20040;-83
2022/06/12 13:37:36;;;;;;;8.32;2.55;;;22.10;67.40;;;;;;4877796;29;20049;-83
2022/06/12 13:40:21;;;;;;;6.68;2.55;;;22.20;66.70;;;;;;4859934;29;20049;-83
2022/06/12 13:42:47;;;;;;;6.55;2.22;;;22.30;67.00;;;;;;4870568;29;20045;-84